Aviation Digital Data Service (ADDS)

Output produced by METARs form (1909 UTC 15 October 2018)
found at http://www.aviationweather.gov/metar/data/
 
KHOU 151728Z 1518/1618 36014G24KT P6SM VCTS BKN007 OVC015CB 
     TEMPO 1518/1522 4SM -SHRA BKN008 OVC015 
     FM160300 36014G24KT P6SM VCSH BKN008 OVC012 
     FM161500 36014KT P6SM SCT008 OVC015
       
KLBX 151906Z 1519/1618 35015KT P6SM VCSH BKN008 OVC015 
     TEMPO 1519/1522 4SM TSRA BR OVC015CB 
     FM160000 36015KT P6SM OVC012 
     FM160600 36014KT P6SM VCSH BKN008 OVC012 
     FM161600 01012KT P6SM OVC012